Flight Track Log - Related Links

Times and Time Zones

All times are in EDT time to prevent confusion due to time zone crossing. See the LXJ541 flight status page for this flight to view local times or setup timezone preferences in your user account.

Time Position Orientation Groundspeed Altitude Reporting Facility
EDT Latitude Longitude Course Direction KTS MPH feet Rate Location/Type
Tue 03:40:40 PM 39.1167 -76.5167 117° Southeast 287 330 7,700  Level Potomac TRACON
Tue 03:41:40 PM 39.0833 -76.4167 113° Southeast 306 352 8,900 650 Climbing Potomac TRACON
Tue 03:42:40 PM 39.0500 -76.3167 113° Southeast 310 357 9,000 -190 Climbing Potomac TRACON
Tue 03:44:18 PM 39.1450 -76.1900 46° Northeast 299 344 8,400 -458 Descending FAA TRACON SMA TRACON (SMA)
Tue 03:44:38 PM 39.1650 -76.1681 40° Northeast 297 342 8,100 -600 Descending FAA TRACON SMA TRACON (SMA)
Tue 03:44:58 PM 39.1856 -76.1461 40° Northeast 296 341 8,000  Descending FAA TRACON SMA TRACON (SMA)
Tue 03:45:18 PM 39.2089 -76.1211 40° Northeast 293 337 8,100  Climbing FAA TRACON SMA TRACON (SMA)
Tue 03:45:38 PM 39.2281 -76.1003 40° Northeast 293 337 8,000 -150 Descending FAA TRACON SMA TRACON (SMA)
Tue 03:45:58 PM 39.2475 -76.0797 39° Northeast 293 337 8,000  Level FAA TRACON SMA TRACON (SMA)
Tue 03:46:18 PM 39.2714 -76.0533 41° Northeast 296 341 8,000 150 Level FAA TRACON SMA TRACON (SMA)
Tue 03:46:38 PM 39.2919 -76.0322 38° Northeast 298 343 8,100  Climbing FAA TRACON SMA TRACON (SMA)
Tue 03:46:58 PM 39.3117 -76.0106 40° Northeast 300 345 8,000 -150 Descending FAA TRACON SMA TRACON (SMA)
Tue 03:47:18 PM 39.3339 -75.9864 40° Northeast 300 345 8,000 150 Level FAA TRACON SMA TRACON (SMA)
Tue 03:47:38 PM 39.3553 -75.9628 40° Northeast 295 339 8,100  Climbing FAA TRACON SMA TRACON (SMA)
Tue 03:47:58 PM 39.3739 -75.9428 40° Northeast 294 338 8,000 -150 Descending FAA TRACON SMA TRACON (SMA)
Tue 03:48:18 PM 39.3933 -75.9217 40° Northeast 289 333 8,000  Level FAA TRACON SMA TRACON (SMA)
Tue 03:48:38 PM 39.4150 -75.8964 42° Northeast 287 330 8,000 -300 Level FAA TRACON SMA TRACON (SMA)
Tue 03:48:58 PM 39.4256 -75.8667 65° Northeast 289 333 7,800 -600 Descending FAA TRACON SMA TRACON (SMA)
Tue 03:49:18 PM 39.4308 -75.8344 78° East 302 348 7,600 -900 Descending FAA TRACON SMA TRACON (SMA)
Tue 03:49:38 PM 39.4372 -75.7953 78° East 297 342 7,200 -750 Descending FAA TRACON SMA TRACON (SMA)
Tue 03:49:58 PM 39.4419 -75.7617 80° East 298 343 7,100 -300 Descending FAA TRACON SMA TRACON (SMA)
Tue 03:50:18 PM 39.4464 -75.7294 80° East 298 343 7,000 -150 Descending FAA TRACON SMA TRACON (SMA)
Tue 03:50:38 PM 39.4528 -75.6889 78° East 298 343 7,000  Level FAA TRACON SMA TRACON (SMA)
Tue 03:50:58 PM 39.4569 -75.6575 80° East 296 341 7,000  Level FAA TRACON SMA TRACON (SMA)
Tue 03:51:18 PM 39.4628 -75.6169 79° East 295 339 7,000 150 Level FAA TRACON SMA TRACON (SMA)
Tue 03:51:38 PM 39.4686 -75.5853 77° East 293 337 7,100  Climbing FAA TRACON SMA TRACON (SMA)
Tue 03:51:58 PM 39.4733 -75.5536 79° East 293 337 7,000 -900 Descending FAA TRACON SMA TRACON (SMA)
Tue 03:52:38 PM 39.4842 -75.4817 79° East 296 341 6,200 -1,000 Descending FAA TRACON SMA TRACON (SMA)
Tue 03:52:58 PM 39.4906 -75.4519 74° East 293 337 6,000 -150 Descending FAA TRACON SMA TRACON (SMA)
Tue 03:53:18 PM 39.4983 -75.4139 75° East 282 325 6,100  Climbing FAA TRACON SMA TRACON (SMA)
Tue 03:53:38 PM 39.5042 -75.3825 76° East 287 330 6,000 -150 Descending FAA TRACON SMA TRACON (SMA)
Tue 03:53:58 PM 39.5100 -75.3506 77° East 293 337 6,000  Level FAA TRACON SMA TRACON (SMA)
Tue 03:54:18 PM 39.5167 -75.3114 78° East 297 342 6,000 150 Level FAA TRACON SMA TRACON (SMA)
Tue 03:54:38 PM 39.5300 -75.2844 57° Northeast 308 354 6,100  Climbing FAA TRACON SMA TRACON (SMA)
Tue 03:54:58 PM 39.5503 -75.2625 40° Northeast 300 345 6,000 -150 Descending FAA TRACON SMA TRACON (SMA)
Tue 03:55:18 PM 39.5736 -75.2347 43° Northeast 295 339 6,000  Level FAA TRACON SMA TRACON (SMA)
Tue 03:55:38 PM 39.5919 -75.2142 41° Northeast 284 327 6,000 -150 Level FAA TRACON SMA TRACON (SMA)
Tue 03:55:58 PM 39.6083 -75.1956 41° Northeast 254 292 5,900 -450 Descending FAA TRACON SMA TRACON (SMA)
Tue 03:56:18 PM 39.6272 -75.1744 41° Northeast 243 280 5,700 -750 Descending FAA TRACON SMA TRACON (SMA)
Tue 03:56:38 PM 39.6442 -75.1558 40° Northeast 244 281 5,400 -750 Descending FAA TRACON SMA TRACON (SMA)
Tue 03:56:58 PM 39.6606 -75.1383 39° Northeast 246 283 5,200 -600 Descending FAA TRACON SMA TRACON (SMA)
Tue 03:57:18 PM 39.6822 -75.1172 37° Northeast 253 291 5,000 -300 Descending FAA TRACON SMA TRACON (SMA)
Tue 03:57:38 PM 39.6992 -75.0997 38° Northeast 253 291 5,000  Level FAA TRACON SMA TRACON (SMA)
Tue 03:57:58 PM 39.7183 -75.0800 38° Northeast 242 278 5,000  Level FAA TRACON SMA TRACON (SMA)
Tue 03:58:18 PM 39.7339 -75.0647 37° Northeast 223 257 5,000 146 Level FAA TRACON SMA TRACON (SMA)
Tue 03:58:39 PM 39.7486 -75.0492 39° Northeast 224 258 5,100 150 Climbing FAA TRACON SMA TRACON (SMA)
Tue 03:58:58 PM 39.7639 -75.0336 38° Northeast 225 259 5,100 -154 Level FAA TRACON SMA TRACON (SMA)
Tue 03:59:18 PM 39.7831 -75.0144 38° Northeast 227 261 5,000 -300 Descending FAA TRACON SMA TRACON (SMA)
Tue 03:59:38 PM 39.7983 -75.0006 35° Northeast 224 258 4,900 -900 Descending FAA TRACON SMA TRACON (SMA)
Tue 03:59:58 PM 39.8161 -74.9897 25° Northeast 226 260 4,400 -1,650 Descending FAA TRACON SMA TRACON (SMA)
Tue 04:00:18 PM 39.8406 -74.9811 15° North 237 273 3,800 -1,463 Descending FAA TRACON SMA TRACON (SMA)
Tue 04:00:39 PM 39.8589 -74.9847 351° North 216 249 3,400 -1,050 Descending FAA TRACON SMA TRACON (SMA)
Tue 04:00:58 PM 39.8806 -74.9889 352° North 204 235 3,100 -600 Descending FAA TRACON SMA TRACON (SMA)
Tue 04:01:19 PM 39.8975 -74.9967 341° North 186 214 3,000 -146 Descending FAA TRACON SMA TRACON (SMA)
Tue 04:01:39 PM 39.9125 -75.0042 339° North 191 220 3,000 -600 Level FAA TRACON SMA TRACON (SMA)
Tue 04:01:59 PM 39.9294 -75.0208 323° Northwest 200 230 2,600 -1,077 Descending FAA TRACON SMA TRACON (SMA)
Tue 04:02:18 PM 39.9308 -75.0389 276° West 163 188 2,300 -923 Descending FAA TRACON SMA TRACON (SMA)
Tue 04:02:38 PM 39.9236 -75.0522 235° Southwest 138 159 2,000 -450 Descending FAA TRACON SMA TRACON (SMA)
Tue 04:02:58 PM 39.9183 -75.0647 241° Southwest 129 148 2,000  Level FAA TRACON SMA TRACON (SMA)
Tue 04:03:19 PM 39.9119 -75.0806 242° Southwest 129 148 2,000  Level FAA TRACON SMA TRACON (SMA)
Tue 04:03:39 PM 39.9083 -75.0944 251° West 130 150 2,000 -154 Level FAA TRACON SMA TRACON (SMA)
Tue 04:03:58 PM 39.9058 -75.1086 257° West 135 155 1,900 -316 Descending FAA TRACON SMA TRACON (SMA)

Login

Don't have an account? Register now (free) for customized features, flight alerts, and more!